Terminal Aerodrome Forecast
Issued by NWS Wichita, KS

Home | Current Version | Previous Version | Graphics & Text | Print | Product List | Glossary On
Versions: 1 2 3 4 5 6 7 8 9 10 11 12 13 14
908
FTUS43 KICT 222335
TAFICT
TAF
KICT 222335Z 2300/2324 VRB04KT P6SM BKN250
     FM231000 05007KT P6SM OVC150
     FM231800 13013KT P6SM OVC150=

USA.gov is the U.S. government's official web portal to all federal, state and local government web resources and services.